sensor_id;sensor_type;location;lat;lon;timestamp;pressure;altitude;pressure_sealevel;temperature;humidity
53041;BME280;39326;42.650;23.248;2023-02-28T00:00:22;92961.28;;;5.74;89.66
53041;BME280;39326;42.650;23.248;2023-02-28T00:02:47;92964.44;;;5.80;89.39
53041;BME280;39326;42.650;23.248;2023-02-28T00:05:16;92961.88;;;5.84;89.06
53041;BME280;39326;42.650;23.248;2023-02-28T00:07:42;92958.72;;;5.78;89.10
53041;BME280;39326;42.650;23.248;2023-02-28T00:10:10;92965.38;;;5.72;89.26
53041;BME280;39326;42.650;23.248;2023-02-28T00:12:36;92971.25;;;5.49;90.76
53041;BME280;39326;42.650;23.248;2023-02-28T00:15:10;92977.69;;;5.36;91.66
53041;BME280;39326;42.650;23.248;2023-02-28T00:17:36;92977.78;;;5.24;92.25
53041;BME280;39326;42.650;23.248;2023-02-28T00:20:03;92967.06;;;5.05;93.73
53041;BME280;39326;42.650;23.248;2023-02-28T00:22:29;92974.47;;;5.27;92.66
53041;BME280;39326;42.650;23.248;2023-02-28T00:24:55;92977.97;;;5.47;91.40
53041;BME280;39326;42.650;23.248;2023-02-28T00:27:20;92987.72;;;5.59;90.61
53041;BME280;39326;42.650;23.248;2023-02-28T00:29:46;92988.06;;;5.57;90.74
53041;BME280;39326;42.650;23.248;2023-02-28T00:32:12;92992.53;;;5.69;90.38
53041;BME280;39326;42.650;23.248;2023-02-28T00:34:37;92996.34;;;5.71;90.01
53041;BME280;39326;42.650;23.248;2023-02-28T00:37:07;92986.28;;;5.77;89.96
53041;BME280;39326;42.650;23.248;2023-02-28T00:39:36;92982.19;;;5.80;89.68
53041;BME280;39326;42.650;23.248;2023-02-28T00:42:03;92984.06;;;5.79;89.91
53041;BME280;39326;42.650;23.248;2023-02-28T00:44:29;92979.88;;;5.78;89.19
53041;BME280;39326;42.650;23.248;2023-02-28T00:46:55;92976.81;;;5.76;89.29
53041;BME280;39326;42.650;23.248;2023-02-28T00:49:21;92978.34;;;5.77;88.82
53041;BME280;39326;42.650;23.248;2023-02-28T00:51:47;92988.19;;;5.76;88.63
53041;BME280;39326;42.650;23.248;2023-02-28T00:54:12;92979.03;;;5.74;88.65
53041;BME280;39326;42.650;23.248;2023-02-28T00:56:38;92975.59;;;5.73;88.61
53041;BME280;39326;42.650;23.248;2023-02-28T00:59:03;92977.16;;;5.74;88.75
53041;BME280;39326;42.650;23.248;2023-02-28T01:01:28;92977.06;;;5.71;89.14
53041;BME280;39326;42.650;23.248;2023-02-28T01:03:54;92976.97;;;5.67;89.19
53041;BME280;39326;42.650;23.248;2023-02-28T01:06:19;92967.16;;;5.68;89.49
53041;BME280;39326;42.650;23.248;2023-02-28T01:08:45;92976.09;;;5.47;90.62
53041;BME280;39326;42.650;23.248;2023-02-28T01:11:11;92985.09;;;5.59;89.90
53041;BME280;39326;42.650;23.248;2023-02-28T01:13:38;92977.25;;;5.62;89.80
53041;BME280;39326;42.650;23.248;2023-02-28T01:16:04;92971.69;;;5.52;90.72
53041;BME280;39326;42.650;23.248;2023-02-28T01:18:30;92974.59;;;5.62;90.09
53041;BME280;39326;42.650;23.248;2023-02-28T01:20:55;92963.25;;;5.62;90.21
53041;BME280;39326;42.650;23.248;2023-02-28T01:23:22;92980.91;;;5.58;90.50
53041;BME280;39326;42.650;23.248;2023-02-28T01:25:49;92976.03;;;5.60;90.42
53041;BME280;39326;42.650;23.248;2023-02-28T01:28:15;92962.56;;;5.65;89.98
53041;BME280;39326;42.650;23.248;2023-02-28T01:30:40;92964.19;;;5.69;89.75
53041;BME280;39326;42.650;23.248;2023-02-28T01:33:05;92951.88;;;5.61;90.39
53041;BME280;39326;42.650;23.248;2023-02-28T01:35:35;92960.16;;;5.60;90.49
53041;BME280;39326;42.650;23.248;2023-02-28T01:38:01;92964.16;;;5.38;91.60
53041;BME280;39326;42.650;23.248;2023-02-28T01:40:26;92968.47;;;5.30;92.17
53041;BME280;39326;42.650;23.248;2023-02-28T01:42:52;92971.84;;;5.43;91.18
53041;BME280;39326;42.650;23.248;2023-02-28T01:47:51;92969.69;;;5.33;91.66
53041;BME280;39326;42.650;23.248;2023-02-28T01:50:29;92981.22;;;5.40;91.28
53041;BME280;39326;42.650;23.248;2023-02-28T01:52:59;92981.63;;;5.42;90.82
53041;BME280;39326;42.650;23.248;2023-02-28T01:55:27;92979.78;;;5.43;90.62
53041;BME280;39326;42.650;23.248;2023-02-28T01:57:56;92977.69;;;5.36;90.87
53041;BME280;39326;42.650;23.248;2023-02-28T02:00:25;92974.13;;;5.29;90.96
53041;BME280;39326;42.650;23.248;2023-02-28T02:02:57;92965.06;;;5.14;90.87
53041;BME280;39326;42.650;23.248;2023-02-28T02:05:28;92968.22;;;5.19;90.93
53041;BME280;39326;42.650;23.248;2023-02-28T02:08:01;92974.97;;;5.05;92.04
53041;BME280;39326;42.650;23.248;2023-02-28T02:19:02;92962.63;;;4.93;91.83
53041;BME280;39326;42.650;23.248;2023-02-28T02:24:29;92966.38;;;4.80;92.91
53041;BME280;39326;42.650;23.248;2023-02-28T02:41:42;92978.41;;;4.77;92.53
53041;BME280;39326;42.650;23.248;2023-02-28T02:44:16;92975.41;;;4.79;92.54
53041;BME280;39326;42.650;23.248;2023-02-28T02:46:45;92976.75;;;4.73;93.04
53041;BME280;39326;42.650;23.248;2023-02-28T02:49:35;92977.88;;;4.59;93.82
53041;BME280;39326;42.650;23.248;2023-02-28T02:52:07;92980.88;;;4.58;93.92
53041;BME280;39326;42.650;23.248;2023-02-28T02:54:37;92978.84;;;4.67;93.44
53041;BME280;39326;42.650;23.248;2023-02-28T02:57:11;92978.63;;;4.72;93.10
53041;BME280;39326;42.650;23.248;2023-02-28T02:59:40;92972.91;;;4.70;92.72
53041;BME280;39326;42.650;23.248;2023-02-28T03:02:09;92979.34;;;4.85;92.52
53041;BME280;39326;42.650;23.248;2023-02-28T03:04:46;92969.47;;;4.82;91.87
53041;BME280;39326;42.650;23.248;2023-02-28T03:07:13;92972.66;;;4.87;91.66
53041;BME280;39326;42.650;23.248;2023-02-28T03:09:39;92983.88;;;4.84;92.25
53041;BME280;39326;42.650;23.248;2023-02-28T03:12:09;92987.63;;;4.83;91.10
53041;BME280;39326;42.650;23.248;2023-02-28T03:15:01;92989.50;;;4.83;91.40
53041;BME280;39326;42.650;23.248;2023-02-28T03:17:35;92988.16;;;4.89;90.90
53041;BME280;39326;42.650;23.248;2023-02-28T03:23:01;93013.00;;;5.00;91.23
53041;BME280;39326;42.650;23.248;2023-02-28T03:25:34;93014.13;;;4.99;90.77
53041;BME280;39326;42.650;23.248;2023-02-28T03:30:58;93011.47;;;4.99;91.36
53041;BME280;39326;42.650;23.248;2023-02-28T03:36:29;93014.44;;;4.98;91.14
53041;BME280;39326;42.650;23.248;2023-02-28T03:38:58;93015.78;;;4.91;91.49
53041;BME280;39326;42.650;23.248;2023-02-28T03:41:47;93017.06;;;4.69;92.69
53041;BME280;39326;42.650;23.248;2023-02-28T03:44:29;93028.59;;;4.77;92.08
53041;BME280;39326;42.650;23.248;2023-02-28T03:52:14;93011.97;;;4.77;91.90
53041;BME280;39326;42.650;23.248;2023-02-28T03:54:45;93037.28;;;4.78;92.26
53041;BME280;39326;42.650;23.248;2023-02-28T03:57:34;93043.03;;;4.67;92.21
53041;BME280;39326;42.650;23.248;2023-02-28T04:00:16;93038.19;;;4.69;92.81
53041;BME280;39326;42.650;23.248;2023-02-28T04:02:44;93034.25;;;4.63;93.02
53041;BME280;39326;42.650;23.248;2023-02-28T04:05:10;93035.47;;;4.41;94.42
53041;BME280;39326;42.650;23.248;2023-02-28T04:07:36;93034.47;;;4.34;94.27
53041;BME280;39326;42.650;23.248;2023-02-28T04:10:02;93031.50;;;4.48;93.99
53041;BME280;39326;42.650;23.248;2023-02-28T04:12:28;93033.69;;;4.58;93.33
53041;BME280;39326;42.650;23.248;2023-02-28T04:14:53;93036.47;;;4.49;93.82
53041;BME280;39326;42.650;23.248;2023-02-28T04:17:18;93038.00;;;4.50;93.83
53041;BME280;39326;42.650;23.248;2023-02-28T04:19:44;93028.88;;;4.35;93.95
53041;BME280;39326;42.650;23.248;2023-02-28T04:22:10;93037.53;;;4.48;93.35
53041;BME280;39326;42.650;23.248;2023-02-28T04:24:35;93035.34;;;4.50;93.29
53041;BME280;39326;42.650;23.248;2023-02-28T04:27:02;93026.97;;;4.48;92.99
53041;BME280;39326;42.650;23.248;2023-02-28T04:29:31;93026.09;;;4.56;92.99
53041;BME280;39326;42.650;23.248;2023-02-28T04:31:57;93021.69;;;4.60;92.74
53041;BME280;39326;42.650;23.248;2023-02-28T04:34:24;93026.88;;;4.57;92.23
53041;BME280;39326;42.650;23.248;2023-02-28T04:36:50;93027.19;;;4.67;92.38
53041;BME280;39326;42.650;23.248;2023-02-28T04:39:16;93026.94;;;4.73;92.08
53041;BME280;39326;42.650;23.248;2023-02-28T04:41:44;93039.59;;;4.79;92.02
53041;BME280;39326;42.650;23.248;2023-02-28T04:44:10;93043.25;;;4.75;92.43
53041;BME280;39326;42.650;23.248;2023-02-28T04:46:35;93031.47;;;4.72;92.05
53041;BME280;39326;42.650;23.248;2023-02-28T04:49:01;93052.63;;;4.60;93.21
53041;BME280;39326;42.650;23.248;2023-02-28T04:51:26;93048.97;;;4.64;93.11
53041;BME280;39326;42.650;23.248;2023-02-28T04:53:52;93047.50;;;4.79;92.52
53041;BME280;39326;42.650;23.248;2023-02-28T04:56:18;93057.09;;;4.72;92.87
53041;BME280;39326;42.650;23.248;2023-02-28T04:58:44;93052.50;;;4.68;92.35
53041;BME280;39326;42.650;23.248;2023-02-28T05:03:47;93072.84;;;4.80;92.19
53041;BME280;39326;42.650;23.248;2023-02-28T05:06:13;93065.25;;;4.79;91.92
53041;BME280;39326;42.650;23.248;2023-02-28T05:08:39;93071.06;;;4.84;91.61
53041;BME280;39326;42.650;23.248;2023-02-28T05:11:07;93061.19;;;4.81;91.94
53041;BME280;39326;42.650;23.248;2023-02-28T05:13:37;93060.50;;;4.84;91.60
53041;BME280;39326;42.650;23.248;2023-02-28T05:16:02;93053.28;;;4.69;91.96
53041;BME280;39326;42.650;23.248;2023-02-28T05:18:28;93059.69;;;4.56;92.90
53041;BME280;39326;42.650;23.248;2023-02-28T05:20:53;93049.88;;;4.56;92.54
53041;BME280;39326;42.650;23.248;2023-02-28T05:23:19;93071.97;;;4.76;92.62
53041;BME280;39326;42.650;23.248;2023-02-28T05:25:47;93075.81;;;4.79;92.33
53041;BME280;39326;42.650;23.248;2023-02-28T05:28:12;93079.03;;;4.60;92.82
53041;BME280;39326;42.650;23.248;2023-02-28T05:30:38;93077.47;;;4.71;92.22
53041;BME280;39326;42.650;23.248;2023-02-28T05:33:03;93083.31;;;4.77;92.22
53041;BME280;39326;42.650;23.248;2023-02-28T05:35:29;93080.47;;;4.57;92.95
53041;BME280;39326;42.650;23.248;2023-02-28T05:37:54;93086.84;;;4.68;92.33
53041;BME280;39326;42.650;23.248;2023-02-28T05:40:19;93086.50;;;4.58;92.75
53041;BME280;39326;42.650;23.248;2023-02-28T05:42:46;93094.00;;;4.68;92.37
53041;BME280;39326;42.650;23.248;2023-02-28T05:45:11;93092.69;;;4.62;92.59
53041;BME280;39326;42.650;23.248;2023-02-28T05:47:37;93088.94;;;4.75;92.94
53041;BME280;39326;42.650;23.248;2023-02-28T05:50:03;93082.75;;;4.83;91.64
53041;BME280;39326;42.650;23.248;2023-02-28T05:52:29;93095.84;;;4.80;92.32
53041;BME280;39326;42.650;23.248;2023-02-28T05:54:55;93101.03;;;4.88;91.46
53041;BME280;39326;42.650;23.248;2023-02-28T05:57:22;93101.34;;;4.87;91.78
53041;BME280;39326;42.650;23.248;2023-02-28T05:59:47;93097.16;;;4.86;91.79
53041;BME280;39326;42.650;23.248;2023-02-28T06:02:14;93108.84;;;4.73;92.39
53041;BME280;39326;42.650;23.248;2023-02-28T06:04:40;93103.31;;;4.90;91.73
53041;BME280;39326;42.650;23.248;2023-02-28T06:07:06;93095.59;;;4.97;91.14
53041;BME280;39326;42.650;23.248;2023-02-28T06:09:32;93095.16;;;4.95;91.55
53041;BME280;39326;42.650;23.248;2023-02-28T06:11:59;93095.81;;;4.92;91.87
53041;BME280;39326;42.650;23.248;2023-02-28T06:14:25;93102.00;;;4.84;92.20
53041;BME280;39326;42.650;23.248;2023-02-28T06:16:51;93099.28;;;4.68;92.84
53041;BME280;39326;42.650;23.248;2023-02-28T06:19:16;93093.56;;;4.41;94.58
53041;BME280;39326;42.650;23.248;2023-02-28T06:21:42;93103.69;;;4.76;93.41
53041;BME280;39326;42.650;23.248;2023-02-28T06:24:08;93103.25;;;4.62;93.99
53041;BME280;39326;42.650;23.248;2023-02-28T06:26:34;93106.97;;;4.73;93.14
53041;BME280;39326;42.650;23.248;2023-02-28T06:28:59;93097.59;;;4.88;92.82
53041;BME280;39326;42.650;23.248;2023-02-28T06:31:26;93102.00;;;4.96;92.27
53041;BME280;39326;42.650;23.248;2023-02-28T06:33:51;93110.91;;;5.04;92.28
53041;BME280;39326;42.650;23.248;2023-02-28T06:36:17;93112.09;;;5.18;92.01
53041;BME280;39326;42.650;23.248;2023-02-28T06:38:43;93117.69;;;5.17;92.19
53041;BME280;39326;42.650;23.248;2023-02-28T06:41:09;93115.94;;;5.21;92.29
53041;BME280;39326;42.650;23.248;2023-02-28T06:43:40;93121.66;;;5.11;92.33
53041;BME280;39326;42.650;23.248;2023-02-28T06:46:07;93124.66;;;4.97;92.92
53041;BME280;39326;42.650;23.248;2023-02-28T06:48:34;93125.97;;;5.03;93.15
53041;BME280;39326;42.650;23.248;2023-02-28T06:51:11;93116.03;;;5.25;92.35
53041;BME280;39326;42.650;23.248;2023-02-28T06:53:38;93121.91;;;5.18;92.64
53041;BME280;39326;42.650;23.248;2023-02-28T06:56:07;93115.94;;;5.21;92.39
53041;BME280;39326;42.650;23.248;2023-02-28T06:58:33;93122.22;;;5.16;92.79
53041;BME280;39326;42.650;23.248;2023-02-28T07:00:59;93121.56;;;5.19;92.82
53041;BME280;39326;42.650;23.248;2023-02-28T07:03:24;93112.53;;;5.20;92.40
53041;BME280;39326;42.650;23.248;2023-02-28T07:05:50;93116.81;;;5.25;92.63
53041;BME280;39326;42.650;23.248;2023-02-28T07:08:16;93122.69;;;5.06;93.32
53041;BME280;39326;42.650;23.248;2023-02-28T07:10:41;93119.53;;;4.88;93.46
53041;BME280;39326;42.650;23.248;2023-02-28T07:13:08;93121.25;;;4.96;93.71
53041;BME280;39326;42.650;23.248;2023-02-28T07:15:34;93123.28;;;4.75;94.42
53041;BME280;39326;42.650;23.248;2023-02-28T07:18:00;93130.72;;;4.98;94.26
53041;BME280;39326;42.650;23.248;2023-02-28T07:20:25;93131.06;;;4.96;94.37
53041;BME280;39326;42.650;23.248;2023-02-28T07:22:51;93132.94;;;4.83;94.62
53041;BME280;39326;42.650;23.248;2023-02-28T07:25:25;93127.31;;;4.97;94.34
53041;BME280;39326;42.650;23.248;2023-02-28T07:27:52;93128.59;;;5.15;93.49
53041;BME280;39326;42.650;23.248;2023-02-28T07:30:17;93130.22;;;5.32;92.75
53041;BME280;39326;42.650;23.248;2023-02-28T07:32:43;93132.91;;;5.20;93.04
53041;BME280;39326;42.650;23.248;2023-02-28T07:35:08;93132.00;;;5.28;92.75
53041;BME280;39326;42.650;23.248;2023-02-28T07:37:34;93138.94;;;5.33;92.59
53041;BME280;39326;42.650;23.248;2023-02-28T07:40:07;93131.19;;;5.40;92.41
53041;BME280;39326;42.650;23.248;2023-02-28T07:42:41;93139.59;;;5.30;92.32
53041;BME280;39326;42.650;23.248;2023-02-28T07:45:07;93138.72;;;5.26;92.59
53041;BME280;39326;42.650;23.248;2023-02-28T07:47:33;93133.13;;;5.15;93.02
53041;BME280;39326;42.650;23.248;2023-02-28T07:49:59;93134.75;;;5.32;92.61
53041;BME280;39326;42.650;23.248;2023-02-28T07:52:25;93126.06;;;5.31;92.65
53041;BME280;39326;42.650;23.248;2023-02-28T07:54:51;93125.94;;;5.28;93.01
53041;BME280;39326;42.650;23.248;2023-02-28T07:57:16;93127.19;;;5.18;92.94
53041;BME280;39326;42.650;23.248;2023-02-28T07:59:42;93128.06;;;5.10;93.89
53041;BME280;39326;42.650;23.248;2023-02-28T08:02:14;93135.75;;;5.27;93.23
53041;BME280;39326;42.650;23.248;2023-02-28T08:04:40;93128.56;;;5.40;92.80
53041;BME280;39326;42.650;23.248;2023-02-28T08:07:06;93130.19;;;5.44;92.85
53041;BME280;39326;42.650;23.248;2023-02-28T08:09:32;93117.06;;;5.48;92.53
53041;BME280;39326;42.650;23.248;2023-02-28T08:11:57;93119.56;;;5.57;92.12
53041;BME280;39326;42.650;23.248;2023-02-28T08:14:23;93133.75;;;5.64;92.12
53041;BME280;39326;42.650;23.248;2023-02-28T08:16:48;93123.78;;;5.73;91.79
53041;BME280;39326;42.650;23.248;2023-02-28T08:19:13;93132.94;;;5.76;91.56
53041;BME280;39326;42.650;23.248;2023-02-28T08:21:39;93141.47;;;5.69;91.72
53041;BME280;39326;42.650;23.248;2023-02-28T08:24:05;93139.22;;;5.56;92.12
53041;BME280;39326;42.650;23.248;2023-02-28T08:26:31;93125.56;;;5.41;92.35
53041;BME280;39326;42.650;23.248;2023-02-28T08:28:56;93133.47;;;5.54;92.64
53041;BME280;39326;42.650;23.248;2023-02-28T08:31:21;93135.94;;;5.74;91.84
53041;BME280;39326;42.650;23.248;2023-02-28T08:33:48;93141.94;;;5.87;91.21
53041;BME280;39326;42.650;23.248;2023-02-28T08:36:16;93152.66;;;5.78;91.87
53041;BME280;39326;42.650;23.248;2023-02-28T08:38:41;93125.13;;;5.67;91.41
53041;BME280;39326;42.650;23.248;2023-02-28T08:41:10;93144.31;;;5.76;91.76
53041;BME280;39326;42.650;23.248;2023-02-28T08:43:36;93145.59;;;5.83;91.70
53041;BME280;39326;42.650;23.248;2023-02-28T08:46:03;93145.72;;;5.74;91.62
53041;BME280;39326;42.650;23.248;2023-02-28T08:48:31;93148.72;;;5.72;92.07
53041;BME280;39326;42.650;23.248;2023-02-28T08:51:01;93142.78;;;5.91;91.75
53041;BME280;39326;42.650;23.248;2023-02-28T08:53:27;93133.84;;;5.96;91.26
53041;BME280;39326;42.650;23.248;2023-02-28T08:58:22;93145.72;;;6.02;91.64
53041;BME280;39326;42.650;23.248;2023-02-28T09:00:47;93138.56;;;6.02;91.36
53041;BME280;39326;42.650;23.248;2023-02-28T09:03:32;93145.97;;;5.97;92.10
53041;BME280;39326;42.650;23.248;2023-02-28T09:09:23;93131.41;;;6.19;91.95
53041;BME280;39326;42.650;23.248;2023-02-28T09:11:48;93138.94;;;6.32;90.84
53041;BME280;39326;42.650;23.248;2023-02-28T09:14:13;93133.38;;;6.22;91.48
53041;BME280;39326;42.650;23.248;2023-02-28T09:16:39;93137.81;;;6.18;91.71
53041;BME280;39326;42.650;23.248;2023-02-28T09:19:04;93134.13;;;6.22;92.01
53041;BME280;39326;42.650;23.248;2023-02-28T09:21:30;93133.03;;;6.23;92.27
53041;BME280;39326;42.650;23.248;2023-02-28T09:23:55;93134.72;;;6.16;92.79
53041;BME280;39326;42.650;23.248;2023-02-28T09:26:24;93130.22;;;6.32;92.45
53041;BME280;39326;42.650;23.248;2023-02-28T09:28:50;93129.72;;;6.42;92.08
53041;BME280;39326;42.650;23.248;2023-02-28T09:31:22;93125.44;;;6.53;92.11
53041;BME280;39326;42.650;23.248;2023-02-28T09:33:50;93130.16;;;6.60;91.70
53041;BME280;39326;42.650;23.248;2023-02-28T09:36:15;93128.84;;;6.54;92.63
53041;BME280;39326;42.650;23.248;2023-02-28T09:38:41;93132.47;;;6.62;92.43
53041;BME280;39326;42.650;23.248;2023-02-28T09:41:16;93124.78;;;6.72;92.56
53041;BME280;39326;42.650;23.248;2023-02-28T09:44:02;93126.31;;;6.73;93.07
53041;BME280;39326;42.650;23.248;2023-02-28T09:46:38;93126.75;;;6.75;93.25
53041;BME280;39326;42.650;23.248;2023-02-28T09:49:17;93122.53;;;6.74;93.07
53041;BME280;39326;42.650;23.248;2023-02-28T09:51:53;93122.28;;;6.79;93.00
53041;BME280;39326;42.650;23.248;2023-02-28T09:54:24;93115.88;;;6.80;93.56
53041;BME280;39326;42.650;23.248;2023-02-28T10:00:01;93110.84;;;6.75;93.16
53041;BME280;39326;42.650;23.248;2023-02-28T10:05:15;93119.56;;;6.76;93.77
53041;BME280;39326;42.650;23.248;2023-02-28T10:08:02;93116.97;;;6.79;93.16
53041;BME280;39326;42.650;23.248;2023-02-28T10:10:49;93112.44;;;6.96;92.57
53041;BME280;39326;42.650;23.248;2023-02-28T10:15:51;93108.19;;;7.10;92.31
53041;BME280;39326;42.650;23.248;2023-02-28T10:18:23;93106.63;;;7.25;92.30
53041;BME280;39326;42.650;23.248;2023-02-28T10:20:50;93106.06;;;7.35;92.33
53041;BME280;39326;42.650;23.248;2023-02-28T10:23:25;93078.38;;;7.52;90.96
53041;BME280;39326;42.650;23.248;2023-02-28T10:26:09;93098.75;;;7.68;91.80
53041;BME280;39326;42.650;23.248;2023-02-28T10:28:36;93088.13;;;7.68;92.32
53041;BME280;39326;42.650;23.248;2023-02-28T10:31:02;93086.94;;;7.65;93.21
53041;BME280;39326;42.650;23.248;2023-02-28T10:33:34;93083.91;;;7.86;92.36
53041;BME280;39326;42.650;23.248;2023-02-28T10:36:01;93085.41;;;8.06;91.79
53041;BME280;39326;42.650;23.248;2023-02-28T10:38:36;93081.69;;;8.11;91.63
53041;BME280;39326;42.650;23.248;2023-02-28T10:43:30;93069.84;;;8.51;92.01
53041;BME280;39326;42.650;23.248;2023-02-28T10:45:57;93065.13;;;8.63;90.91
53041;BME280;39326;42.650;23.248;2023-02-28T10:50:53;93064.50;;;9.00;90.84
53041;BME280;39326;42.650;23.248;2023-02-28T10:58:57;93052.06;;;9.38;89.34
53041;BME280;39326;42.650;23.248;2023-02-28T11:03:57;93041.94;;;9.84;87.72
53041;BME280;39326;42.650;23.248;2023-02-28T11:06:29;93038.97;;;9.93;87.40
53041;BME280;39326;42.650;23.248;2023-02-28T11:09:00;93034.72;;;9.85;86.67
53041;BME280;39326;42.650;23.248;2023-02-28T11:11:28;93027.84;;;9.84;86.93
53041;BME280;39326;42.650;23.248;2023-02-28T11:14:03;93021.44;;;9.92;87.19
53041;BME280;39326;42.650;23.248;2023-02-28T11:16:35;93022.75;;;10.05;86.67
53041;BME280;39326;42.650;23.248;2023-02-28T11:19:03;93022.44;;;10.14;85.84
53041;BME280;39326;42.650;23.248;2023-02-28T11:21:32;93017.94;;;10.21;84.30
53041;BME280;39326;42.650;23.248;2023-02-28T11:24:14;93007.31;;;10.25;84.31
53041;BME280;39326;42.650;23.248;2023-02-28T11:26:45;93014.63;;;10.35;84.19
53041;BME280;39326;42.650;23.248;2023-02-28T11:29:39;93009.78;;;10.51;83.39
53041;BME280;39326;42.650;23.248;2023-02-28T11:32:04;93008.72;;;10.59;84.13
53041;BME280;39326;42.650;23.248;2023-02-28T11:34:31;93009.63;;;10.85;82.66
53041;BME280;39326;42.650;23.248;2023-02-28T11:36:58;93002.81;;;10.91;80.86
53041;BME280;39326;42.650;23.248;2023-02-28T11:39:26;93000.28;;;11.16;80.32
53041;BME280;39326;42.650;23.248;2023-02-28T11:42:13;93001.06;;;11.27;78.82
53041;BME280;39326;42.650;23.248;2023-02-28T11:52:48;92991.69;;;11.65;75.83
53041;BME280;39326;42.650;23.248;2023-02-28T12:00:57;92991.66;;;11.58;74.47
53041;BME280;39326;42.650;23.248;2023-02-28T12:05:57;92990.97;;;11.83;74.82
53041;BME280;39326;42.650;23.248;2023-02-28T12:11:04;92993.22;;;11.66;73.81
53041;BME280;39326;42.650;23.248;2023-02-28T12:16:49;92990.53;;;11.56;72.42
53041;BME280;39326;42.650;23.248;2023-02-28T12:22:30;92990.81;;;11.36;71.86
53041;BME280;39326;42.650;23.248;2023-02-28T12:25:21;92986.59;;;11.32;72.24
53041;BME280;39326;42.650;23.248;2023-02-28T12:27:48;92982.81;;;11.36;72.17
53041;BME280;39326;42.650;23.248;2023-02-28T12:30:25;92987.38;;;11.39;71.07
53041;BME280;39326;42.650;23.248;2023-02-28T12:33:03;92981.16;;;11.10;71.43
53041;BME280;39326;42.650;23.248;2023-02-28T12:35:56;92988.06;;;11.19;68.73
53041;BME280;39326;42.650;23.248;2023-02-28T12:40:54;92983.91;;;11.32;71.28
53041;BME280;39326;42.650;23.248;2023-02-28T12:43:27;92969.31;;;11.08;71.44
53041;BME280;39326;42.650;23.248;2023-02-28T12:46:14;92974.84;;;10.71;71.11
53041;BME280;39326;42.650;23.248;2023-02-28T12:48:53;92977.09;;;10.61;71.89
53041;BME280;39326;42.650;23.248;2023-02-28T12:51:22;92969.88;;;10.66;72.33
53041;BME280;39326;42.650;23.248;2023-02-28T13:08:50;92974.28;;;10.40;73.20
53041;BME280;39326;42.650;23.248;2023-02-28T13:11:29;92980.06;;;10.49;72.11
53041;BME280;39326;42.650;23.248;2023-02-28T13:14:18;92971.63;;;10.44;72.65
53041;BME280;39326;42.650;23.248;2023-02-28T13:19:36;92969.94;;;10.18;72.97
53041;BME280;39326;42.650;23.248;2023-02-28T13:22:03;92962.66;;;10.11;73.50
53041;BME280;39326;42.650;23.248;2023-02-28T13:24:39;92966.50;;;10.17;73.69
53041;BME280;39326;42.650;23.248;2023-02-28T13:29:41;92955.78;;;10.10;73.80
53041;BME280;39326;42.650;23.248;2023-02-28T13:34:47;92969.25;;;10.28;72.88
53041;BME280;39326;42.650;23.248;2023-02-28T13:40:06;92947.47;;;10.15;72.56
53041;BME280;39326;42.650;23.248;2023-02-28T13:47:39;92937.56;;;10.16;72.42
53041;BME280;39326;42.650;23.248;2023-02-28T14:06:55;92932.66;;;10.25;72.47
53041;BME280;39326;42.650;23.248;2023-02-28T14:09:45;92931.03;;;10.10;72.39
53041;BME280;39326;42.650;23.248;2023-02-28T14:16:20;92929.78;;;10.00;73.65
53041;BME280;39326;42.650;23.248;2023-02-28T14:18:28;92926.31;;;9.92;73.50
53041;BME280;39326;42.650;23.248;2023-02-28T14:21:09;92920.41;;;10.13;72.80
53041;BME280;39326;42.650;23.248;2023-02-28T14:26:45;92925.06;;;9.79;73.32
53041;BME280;39326;42.650;23.248;2023-02-28T14:32:44;92916.09;;;9.57;73.70
53041;BME280;39326;42.650;23.248;2023-02-28T14:35:35;92935.16;;;9.59;73.67
53041;BME280;39326;42.650;23.248;2023-02-28T14:38:06;92922.06;;;9.43;73.84
53041;BME280;39326;42.650;23.248;2023-02-28T14:40:38;92915.47;;;9.30;74.76
53041;BME280;39326;42.650;23.248;2023-02-28T14:43:06;92923.50;;;9.34;74.53
53041;BME280;39326;42.650;23.248;2023-02-28T14:45:33;92924.72;;;9.40;74.50
53041;BME280;39326;42.650;23.248;2023-02-28T14:48:02;92912.88;;;9.37;74.78
53041;BME280;39326;42.650;23.248;2023-02-28T14:50:32;92910.59;;;9.36;74.48
53041;BME280;39326;42.650;23.248;2023-02-28T14:52:59;92907.94;;;9.36;73.88
53041;BME280;39326;42.650;23.248;2023-02-28T14:55:34;92910.25;;;9.41;72.90
53041;BME280;39326;42.650;23.248;2023-02-28T14:58:05;92906.66;;;9.22;73.81
53041;BME280;39326;42.650;23.248;2023-02-28T15:00:36;92911.94;;;9.19;73.75
53041;BME280;39326;42.650;23.248;2023-02-28T15:03:38;92908.94;;;9.24;74.09
53041;BME280;39326;42.650;23.248;2023-02-28T15:06:11;92905.41;;;9.13;74.86
53041;BME280;39326;42.650;23.248;2023-02-28T15:08:37;92911.16;;;9.15;74.69
53041;BME280;39326;42.650;23.248;2023-02-28T15:11:13;92909.19;;;9.12;74.85
53041;BME280;39326;42.650;23.248;2023-02-28T15:13:42;92909.50;;;9.07;75.33
53041;BME280;39326;42.650;23.248;2023-02-28T15:16:31;92914.38;;;9.01;75.69
53041;BME280;39326;42.650;23.248;2023-02-28T15:21:30;92913.59;;;8.63;77.41
53041;BME280;39326;42.650;23.248;2023-02-28T15:24:07;92927.50;;;8.53;78.30
53041;BME280;39326;42.650;23.248;2023-02-28T15:26:39;92920.91;;;8.43;78.55
53041;BME280;39326;42.650;23.248;2023-02-28T15:29:15;92931.09;;;8.41;78.34
53041;BME280;39326;42.650;23.248;2023-02-28T15:31:49;92929.03;;;8.28;79.52
53041;BME280;39326;42.650;23.248;2023-02-28T15:34:26;92936.13;;;8.20;79.53
53041;BME280;39326;42.650;23.248;2023-02-28T15:36:52;92927.91;;;8.29;79.18
53041;BME280;39326;42.650;23.248;2023-02-28T15:39:21;92932.72;;;8.19;80.08
53041;BME280;39326;42.650;23.248;2023-02-28T15:41:46;92927.59;;;8.07;80.49
53041;BME280;39326;42.650;23.248;2023-02-28T15:47:05;92926.78;;;8.03;80.44
53041;BME280;39326;42.650;23.248;2023-02-28T15:49:40;92936.63;;;8.03;80.46
53041;BME280;39326;42.650;23.248;2023-02-28T15:52:13;92932.16;;;7.84;81.41
53041;BME280;39326;42.650;23.248;2023-02-28T15:54:41;92940.13;;;7.84;81.70